Date,TemperatureHighF,TemperatureAvgF,TemperatureLowF,DewpointHighF,DewpointAvgF,DewpointLowF,HumidityHigh,HumidityAvg,HumidityLow,PressureMaxIn,PressureMinIn,WindSpeedMaxMPH,WindSpeedAvgMPH,GustSpeedMaxMPH,PrecipitationSumIn
2013-1-1,30,25,20,7,1,-4,36,34,33,29.77,29.65,10,2,10,0.00
2013-1-2,33,29,18,6,4,-4,44,34,31,29.94,29.74,19,5,19,0.00
2013-1-3,25,19,16,3,-1,-4,54,41,32,29.83,29.80,6,0,6,0.00
2013-1-4,17,17,17,3,3,3,55,55,54,29.80,29.80,0,0,0,0.00
2013-1-5,44,31,21,14,12,9,68,47,29,30.03,29.94,16,1,16,0.00
2013-1-7,24,20,17,12,10,8,68,64,55,30.15,30.12,0,0,0,0.00
2013-1-8,17,17,17,9,8,8,70,68,67,30.12,30.12,0,0,0,0.00
2013-1-10,44,31,25,16,13,10,68,48,28,30.33,30.24,6,0,6,0.00
2013-1-12,45,42,41,41,40,39,95,91,87,29.88,29.88,5,1,5,0.00
2013-1-14,50,40,35,27,18,15,43,41,40,30.09,29.91,13,4,13,0.08
2013-1-15,38,34,33,15,14,12,46,43,38,30.06,30.00,7,0,7,0.00
2013-1-16,33,32,31,29,27,13,89,81,43,30.00,29.62,0,0,0,0.00
2013-1-17,42,35,26,27,14,3,88,42,36,29.88,29.65,13,5,13,0.20
2013-1-18,31,24,18,3,0,-4,42,34,28,30.21,30.12,17,4,17,0.20
2013-1-19,27,25,23,4,3,2,39,37,36,30.12,30.09,11,4,11,0.00
2013-1-20,27,27,26,-1,-2,-2,29,28,28,29.80,29.80,12,6,12,0.00
2013-1-21,30,25,16,6,1,-6,49,35,29,29.85,29.65,17,4,17,0.00
2013-1-22,29,29,29,3,3,3,33,33,33,29.65,29.65,6,6,6,0.00
2013-1-23,17,8,1,-11,-18,-24,29,29,26,29.94,29.91,11,1,11,0.00
2013-1-24,1,1,1,-24,-24,-24,29,29,29,29.94,29.94,0,0,0,0.00
2013-1-29,38,38,37,34,33,32,85,82,79,29.88,29.85,10,3,10,0.00
2013-1-30,55,53,51,51,50,48,93,87,83,29.32,29.12,8,2,8,0.16
2013-1-31,52,52,52,50,50,50,93,92,92,29.12,29.09,6,2,6,0.00
2013-2-1,23,22,22,-2,-3,-3,33,32,32,29.94,29.85,14,6,14,0.98
2013-2-2,31,23,18,8,0,-4,55,37,28,30.03,29.83,21,7,21,0.00
2013-2-3,34,29,23,8,5,2,42,36,32,29.62,29.53,9,2,9,0.00
2013-2-4,32,27,24,3,-1,-4,33,29,25,29.71,29.65,22,6,22,0.00
2013-2-5,34,29,26,18,14,8,70,55,35,29.71,29.65,8,1,8,0.00
2013-2-6,41,31,24,11,2,-5,31,29,26,30.12,29.85,15,5,15,0.00
2013-2-7,36,28,23,3,-1,-5,34,29,24,30.18,30.12,8,2,8,0.00
2013-2-8,30,28,25,23,12,2,81,54,34,30.12,29.50,15,1,15,0.00
2013-2-9,34,26,16,20,-2,-9,80,30,23,30.09,29.56,21,4,21,0.00
2013-2-10,32,17,12,0,-3,-6,51,40,23,30.15,30.09,0,0,0,0.00
2013-2-11,41,37,33,36,32,28,89,82,77,29.77,29.44,6,0,6,0.20
2013-2-12,46,39,35,17,14,13,41,36,31,29.71,29.59,22,6,22,0.20
2013-2-13,39,35,32,20,14,10,61,43,29,29.50,29.47,9,1,9,0.00
2013-2-14,40,31,26,23,14,11,70,49,32,29.74,29.47,4,0,4,0.00
2013-2-15,54,48,41,20,16,13,31,28,26,29.68,29.65,13,4,13,0.00
2013-2-16,39,32,29,12,7,4,35,34,32,29.68,29.62,13,5,13,0.00
2013-2-17,27,25,24,1,0,-1,32,32,31,29.44,29.44,17,7,17,0.00
2013-3-9,50,35,27,13,11,7,53,38,21,30.09,30.03,6,0,6,1.38
2013-3-10,56,49,40,23,20,17,49,33,25,30.06,30.03,15,7,15,0.00
2013-3-12,56,51,40,52,44,31,90,80,65,29.62,29.41,20,5,20,0.75
2013-3-13,52,45,33,23,16,12,52,32,24,29.62,29.53,17,6,17,0.75
2013-3-14,36,33,30,7,4,1,31,29,25,29.68,29.62,0,0,0,0.00
2013-3-15,41,39,30,18,14,1,41,35,28,29.68,29.47,0,0,0,0.00
2013-3-16,40,40,40,18,18,18,41,41,41,29.47,29.47,0,0,0,0.00
2013-3-18,29,28,28,22,21,21,75,74,73,29.88,29.85,0,0,0,0.00
2013-3-19,41,35,28,30,26,15,85,70,44,29.85,29.47,0,0,0,0.28
2013-3-20,43,36,27,18,10,8,55,34,28,29.62,29.53,0,0,0,0.00
2013-3-21,36,31,27,13,5,2,56,33,27,29.59,29.41,0,0,0,0.00
2013-3-22,39,36,35,13,11,10,40,35,31,29.62,29.50,0,0,0,0.00
2013-3-23,46,44,41,15,13,11,31,29,28,29.59,29.59,0,0,0,0.00
2013-3-24,38,37,35,11,10,10,37,34,31,29.53,29.53,0,0,0,0.00
2013-3-25,52,44,39,18,15,12,40,30,26,29.38,29.23,0,0,0,0.00
2013-3-26,54,42,28,22,15,10,52,34,27,29.62,29.35,0,0,0,0.00
2013-3-28,50,46,42,23,21,19,40,36,32,29.85,29.77,0,0,0,0.00
2013-3-29,58,50,40,23,18,15,39,29,25,29.88,29.80,0,0,0,0.00
2013-3-30,39,38,37,16,16,15,40,40,39,29.88,29.88,0,0,0,0.00
2013-3-31,49,46,44,36,29,24,73,52,38,29.59,29.47,0,0,0,0.16
2013-4-2,43,38,34,7,3,1,25,23,20,29.83,29.68,0,0,0,0.04
2013-4-3,46,38,31,7,3,-1,28,23,20,30.06,29.83,0,0,0,0.00
2013-4-4,57,49,42,15,13,11,32,24,17,29.85,29.83,0,0,0,0.00
2013-4-5,57,46,40,12,9,6,28,22,17,29.74,29.53,0,0,0,0.00
2013-4-8,68,58,53,30,26,23,38,30,22,29.77,29.74,0,0,0,0.00
2013-4-9,57,56,55,31,30,30,37,37,36,29.74,29.74,0,0,0,0.00
2013-4-10,67,60,54,51,43,38,87,56,36,29.74,29.56,0,0,0,0.28
2013-4-11,51,43,36,21,17,14,52,36,29,29.85,29.77,0,0,0,0.28
2013-4-12,42,41,36,35,32,21,79,72,53,29.85,29.53,0,0,0,0.31
2013-4-13,39,39,39,31,31,30,75,74,71,29.56,29.56,0,0,0,0.04
2013-4-14,53,44,37,19,15,11,40,31,26,30.00,29.88,0,0,0,0.04
2013-4-15,58,52,48,23,20,18,29,27,25,30.12,30.03,0,0,0,0.00
2013-4-16,48,48,48,18,18,17,30,29,29,30.12,30.12,0,0,0,0.00
2013-4-17,69,58,42,26,23,19,51,28,20,30.06,29.94,0,0,0,0.04
2013-4-18,62,50,35,42,28,22,74,46,24,30.09,29.88,0,0,0,0.00
2013-4-19,74,70,53,54,48,42,70,48,40,29.88,29.35,0,0,0,0.16
2013-4-20,60,54,46,40,20,12,76,27,19,30.00,29.62,0,0,0,0.59
2013-4-21,44,42,42,8,7,7,23,23,23,30.39,30.36,0,0,0,0.00
2013-4-23,55,49,41,29,26,20,48,41,36,30.18,29.97,0,0,0,0.00
2013-4-24,75,66,58,38,35,32,48,32,22,29.59,29.53,0,0,0,0.00
2013-4-25,56,49,42,18,16,13,36,27,20,30.00,29.94,0,0,0,0.00
2013-4-26,68,60,49,27,22,16,26,23,20,30.21,30.12,0,0,0,0.00
2013-4-28,76,73,70,32,27,23,21,18,16,30.00,29.94,0,0,0,0.00
2013-5-6,75,67,58,40,35,31,52,33,21,29.94,29.85,12,3,12,1.26
2013-5-7,80,68,58,46,40,33,64,38,20,29.91,29.83,14,3,14,1.26
2013-5-8,70,63,57,60,53,46,87,70,51,29.91,29.74,16,2,16,0.28
2013-5-9,60,57,54,51,50,48,80,76,71,29.71,29.68,0,0,0,0.35
2013-5-10,54,53,53,48,48,47,81,80,80,29.71,29.71,0,0,0,0.00
2013-5-12,65,59,56,44,41,38,63,51,39,29.47,29.44,5,1,5,0.39
2013-5-15,62,59,56,45,42,41,65,53,45,29.47,29.44,6,0,6,0.04
2013-5-16,84,82,76,36,30,27,21,16,13,29.56,29.47,21,6,21,0.00
2013-5-17,71,61,50,36,31,26,56,35,22,29.97,29.85,10,1,10,0.00
2013-5-19,57,57,57,52,52,52,84,83,82,29.97,29.94,4,0,4,0.20
2013-5-20,57,57,57,53,52,52,84,84,84,29.94,29.94,4,1,4,0.00
2013-5-22,77,73,70,62,60,56,74,63,48,29.62,29.59,9,3,9,0.12
2013-5-23,72,68,66,64,62,60,90,82,68,29.62,29.50,11,3,11,0.55
2013-5-25,49,48,48,40,40,39,73,72,70,29.68,29.68,11,4,11,1.10
2013-5-26,55,48,43,26,24,20,51,39,26,29.94,29.88,3,0,3,0.12
2013-5-27,79,76,73,32,27,24,21,16,15,29.94,29.85,13,3,13,0.00
2013-5-28,71,62,55,53,44,31,84,56,24,30.00,29.91,10,1,10,0.08
2013-5-29,84,79,69,59,54,50,62,43,36,29.83,29.74,15,4,15,0.08
2013-6-2,90,84,76,54,51,48,45,33,28,29.56,29.50,21,7,21,0.24
2013-6-7,61,59,57,57,55,51,90,86,81,29.74,29.50,6,1,6,0.55
2013-6-8,57,57,57,54,54,54,90,90,90,29.50,29.50,0,0,0,0.04
2013-6-9,69,64,60,51,50,47,71,61,45,29.94,29.91,3,0,3,0.24
2013-6-16,76,72,67,55,48,44,65,43,32,29.62,29.50,14,5,18,2.99
2013-6-17,88,74,63,54,46,36,72,41,18,29.68,29.59,25,3,25,0.00
2013-6-19,79,69,54,42,36,31,63,32,20,29.94,29.83,10,2,10,0.12
2013-6-25,92,83,76,65,56,48,61,41,23,29.65,29.56,16,4,16,0.08
2013-6-26,81,73,67,61,58,55,77,61,42,29.59,29.56,13,2,13,0.00
2013-6-27,67,67,67,60,59,59,78,78,77,29.59,29.59,0,0,0,0.00
2013-6-28,86,83,73,60,53,49,62,36,30,29.26,29.23,15,6,15,0.20
2013-7-6,94,88,76,63,54,49,64,32,23,29.85,29.77,14,4,14,3.50
2013-7-7,95,86,78,59,55,48,42,35,26,29.74,29.68,15,5,15,0.08
2013-7-8,91,79,68,60,54,47,75,46,25,29.83,29.71,15,3,15,0.00
2013-7-9,89,80,68,72,59,52,83,50,30,29.85,29.77,6,1,6,0.16
2013-7-11,88,79,68,57,51,47,68,39,28,29.71,29.62,10,2,10,0.16
2013-7-12,85,79,73,50,48,46,40,34,28,29.91,29.83,11,4,11,0.00
2013-7-15,97,89,73,67,56,48,71,36,20,30.00,29.91,8,2,9,0.16
2013-7-16,96,90,77,62,50,43,60,28,17,29.94,29.91,14,2,14,0.08
2013-7-20,91,84,74,56,51,47,53,33,23,29.59,29.50,10,3,10,0.16
2013-7-21,92,83,71,58,48,40,63,33,18,29.74,29.68,8,1,8,0.08
2013-7-22,86,78,74,66,60,52,77,57,31,29.62,29.59,13,3,13,0.08
2013-7-23,92,81,72,67,60,51,81,51,27,29.59,29.32,22,3,22,0.83
2013-7-26,85,75,64,53,48,42,66,41,23,29.80,29.77,8,1,8,0.83
2013-7-28,79,73,68,67,59,51,82,64,40,29.77,29.71,13,3,13,0.28
2013-7-29,84,76,64,46,39,35,53,28,20,29.85,29.77,15,4,15,0.28
2013-7-30,86,77,63,49,41,36,60,29,20,29.91,29.85,10,3,10,0.00
2013-8-4,70,65,59,40,35,32,48,33,25,29.74,29.68,10,3,10,0.63
2013-8-6,85,77,62,45,39,36,53,28,18,29.88,29.85,12,4,12,0.00
2013-8-7,75,72,71,55,50,46,58,46,36,29.85,29.83,16,5,16,0.08
2013-8-8,83,77,73,63,58,53,69,54,38,29.80,29.77,15,4,15,0.00
2013-8-9,84,78,73,74,66,59,92,70,44,29.77,29.56,9,4,10,4.02
2013-8-10,78,72,64,51,42,36,50,35,24,29.83,29.74,8,2,8,0.00
2013-8-11,66,64,63,53,51,49,70,64,55,29.83,29.80,0,0,0,0.00
2013-8-12,87,76,62,54,44,37,71,37,19,29.83,29.68,11,2,11,0.00
2013-8-13,78,72,65,68,60,52,87,68,42,29.56,29.44,8,2,8,0.47
2013-8-14,77,72,65,39,35,32,36,26,22,29.71,29.62,21,7,21,0.47
2013-8-15,53,53,53,42,42,42,66,66,66,29.83,29.83,0,0,0,0.00
2013-8-16,85,77,61,48,40,34,63,29,19,29.97,29.91,9,2,9,0.00
2013-8-18,78,73,63,58,50,45,72,47,32,30.03,29.91,5,0,5,0.00
2013-8-19,82,76,63,54,48,45,72,39,29,29.91,29.80,6,1,6,0.16
2013-8-21,85,74,66,56,51,40,70,49,21,29.85,29.83,8,1,8,0.08
2013-8-22,85,75,65,63,56,51,75,55,32,29.83,29.62,12,2,12,0.00
2013-8-23,68,61,56,45,40,33,65,48,27,29.91,29.83,4,0,4,0.00
2013-8-24,57,56,56,46,45,45,67,66,65,29.94,29.91,4,1,4,0.00
2013-8-26,77,72,69,64,60,53,82,66,43,29.77,29.68,8,1,8,0.28
2013-8-27,87,79,68,63,53,49,83,43,28,29.68,29.62,13,3,13,0.51
2013-8-28,75,70,66,59,58,54,77,66,48,29.68,29.65,4,0,4,0.51
2013-8-29,72,70,66,59,55,53,77,60,54,29.80,29.68,6,1,6,0.00
2013-8-30,88,80,69,61,52,44,67,42,23,29.80,29.62,10,2,10,0.00
2013-8-31,73,73,73,61,61,61,67,67,67,29.62,29.62,4,0,4,0.00
2013-9-2,86,76,65,63,56,50,88,55,31,29.56,29.47,15,3,15,2.76
2013-9-3,70,65,60,50,44,39,70,49,34,29.65,29.59,7,0,7,2.76
2013-9-4,84,80,69,39,36,34,33,21,19,29.71,29.68,13,5,13,0.00
2013-9-5,77,65,49,37,31,24,64,31,15,29.94,29.77,11,2,11,0.00
2013-9-6,75,63,47,37,29,21,64,31,16,30.03,29.91,11,1,11,0.00
2013-9-23,64,52,44,31,27,22,55,41,21,29.83,29.77,6,0,6,0.00
2013-9-24,74,58,44,36,31,24,64,40,16,29.74,29.65,8,0,8,0.00
2013-9-25,58,52,49,40,38,37,70,58,45,29.74,29.68,0,0,0,0.00
2013-9-26,54,50,48,41,35,32,71,57,45,29.91,29.74,0,0,0,0.00
2013-9-28,74,68,60,38,35,32,43,31,22,30.12,30.09,8,2,8,0.00
2013-9-29,70,65,60,48,40,36,66,42,31,30.00,29.97,4,1,4,0.00
2013-9-30,79,65,50,47,35,28,62,36,18,29.85,29.74,8,1,8,0.00
2013-10-1,83,72,56,46,40,34,66,36,19,29.74,29.65,8,1,8,0.08
2013-10-3,64,58,56,45,43,42,65,57,45,29.85,29.83,0,0,0,0.00
2013-10-6,62,62,61,52,50,49,69,67,64,29.85,29.83,9,2,9,1.81
2013-10-7,66,60,54,52,40,34,63,47,39,29.74,29.56,13,3,13,1.02
2013-10-8,69,58,43,40,27,20,64,35,17,30.15,29.74,12,2,12,0.00
2013-10-9,68,58,43,34,29,24,66,37,20,30.21,30.12,11,2,11,0.00
2013-10-10,46,46,45,34,34,33,63,63,63,30.12,30.12,0,0,0,0.00
2013-10-15,65,55,48,34,30,26,55,39,26,29.94,29.91,5,1,6,0.00
2013-10-16,48,47,46,32,32,31,56,56,55,29.91,29.88,0,0,0,0.00
2013-10-17,77,71,64,51,37,29,63,31,18,29.62,29.41,13,4,13,0.00
2013-10-18,65,65,65,51,51,50,61,61,60,29.41,29.41,12,7,12,0.00
2013-10-20,64,53,38,22,18,12,50,28,18,29.83,29.68,15,3,15,0.08
2013-10-21,69,60,46,24,21,14,39,22,16,29.85,29.74,15,5,15,0.00
2013-10-22,63,48,37,43,29,22,73,49,25,29.74,29.50,10,1,10,0.00
2013-10-23,47,45,43,21,19,17,39,35,30,29.50,29.44,6,1,6,0.00
2013-10-24,53,52,50,13,11,9,21,20,18,29.65,29.59,20,9,20,0.00
2013-10-25,56,44,33,18,13,9,52,30,20,29.97,29.85,15,2,15,0.00
2013-10-26,56,51,49,12,11,9,21,19,17,29.71,29.65,23,7,23,0.00
2013-10-27,49,49,49,11,11,11,21,21,21,29.65,29.62,9,4,9,0.00
2013-11-7,46,42,32,29,18,10,53,38,29,29.68,29.59,12,3,12,0.51
2013-11-15,51,40,34,10,4,1,30,22,19,29.97,29.91,0,0,0,0.00
2013-11-18,57,53,48,14,11,8,21,19,17,29.53,29.41,24,6,24,0.16
2013-11-19,44,34,28,6,2,0,33,26,20,30.15,29.88,17,4,17,0.00
2013-11-20,28,27,26,2,2,1,34,33,33,30.15,30.15,3,0,3,0.00
2013-11-24,31,26,23,-6,-8,-10,27,22,20,30.06,29.91,28,9,28,0.12
2013-11-25,37,35,33,2,0,-1,23,22,22,30.15,30.09,15,6,15,0.00
2013-11-26,34,33,33,28,23,19,77,65,54,29.97,29.62,7,0,7,0.55
2013-11-27,44,38,34,40,23,6,85,57,30,29.44,29.12,26,5,26,0.55
2013-11-28,35,27,20,6,-2,-9,43,28,22,30.21,29.44,26,3,26,0.00
2013-11-29,26,21,16,5,2,0,48,44,34,30.50,30.42,5,0,5,0.00
2013-11-30,36,32,30,4,0,-3,31,25,22,30.45,30.15,10,2,10,0.00
2013-12-1,31,31,31,4,4,4,31,31,31,30.15,30.15,0,0,0,0.00
2013-12-2,45,40,35,28,20,17,55,45,38,29.71,29.68,0,0,0,0.00
2013-12-3,43,33,25,34,21,15,75,61,46,29.80,29.65,4,0,4,0.00
2013-12-4,47,41,40,18,17,13,40,37,28,29.91,29.85,4,0,4,0.00
2013-12-5,53,51,50,48,45,43,85,79,75,29.77,29.71,8,1,8,0.12
2013-12-6,44,39,33,25,22,17,64,50,38,29.94,29.80,13,2,13,0.31
2013-12-7,33,33,33,23,23,23,65,65,65,29.94,29.91,6,1,6,0.00
2013-12-8,31,29,28,9,6,3,43,36,31,30.33,30.21,6,0,6,0.08
2013-12-9,28,28,28,8,8,7,43,42,42,30.21,30.18,2,0,2,0.00
2013-12-10,34,30,25,23,11,2,68,44,33,29.80,29.62,10,5,14,0.04
2013-12-11,31,26,17,5,2,0,54,36,30,30.00,29.94,14,4,14,0.00
2013-12-12,27,20,11,-3,-8,-15,44,28,23,30.03,29.88,22,4,22,0.00
2013-12-13,34,28,17,3,-1,-7,34,29,25,30.12,29.85,24,6,24,0.00
2013-12-15,35,27,18,19,11,2,68,52,31,29.65,29.32,18,3,18,0.00
2013-12-16,30,17,3,-4,-12,-22,29,26,23,29.97,29.80,17,2,17,0.00
2013-12-17,19,15,3,7,2,-22,59,55,29,29.97,29.74,8,1,8,0.00
2013-12-18,29,25,16,3,3,2,56,39,32,29.88,29.74,11,5,11,0.04
2013-12-19,29,28,28,3,3,2,33,33,32,29.88,29.88,13,7,13,0.00
2013-12-21,60,51,40,31,25,19,68,38,24,29.74,29.62,10,2,10,0.20
2013-12-23,46,42,36,40,33,16,79,70,45,29.91,29.71,13,3,13,0.16
2013-12-24,38,36,34,8,6,4,30,28,26,29.91,29.85,10,5,10,0.00
2013-12-25,26,18,14,0,-6,-11,47,35,24,30.27,30.21,4,0,4,0.00
2013-12-27,38,33,26,8,6,4,43,32,26,30.06,30.00,10,4,11,0.00
2013-12-28,51,40,28,12,9,4,49,30,19,29.88,29.80,13,3,13,0.00
2013-12-29,41,39,38,33,28,14,80,67,34,29.71,29.26,18,4,18,0.83
2014-1-2,10,7,4,-7,-9,-12,46,46,46,29.74,29.56,15,7,15,0.00